sensor_id;sensor_type;location;lat;lon;timestamp;P1;durP1;ratioP1;P2;durP2;ratioP2
36663;SDS011;53333;51.976;20.144;2023-08-12T00:01:51;20.25;;;11.13;;
36663;SDS011;53333;51.976;20.144;2023-08-12T00:04:24;23.70;;;10.70;;
36663;SDS011;53333;51.976;20.144;2023-08-12T00:06:57;21.50;;;11.38;;
36663;SDS011;53333;51.976;20.144;2023-08-12T00:09:30;20.88;;;10.98;;
36663;SDS011;53333;51.976;20.144;2023-08-12T00:12:03;27.65;;;12.05;;
36663;SDS011;53333;51.976;20.144;2023-08-12T00:14:38;19.33;;;9.75;;
36663;SDS011;53333;51.976;20.144;2023-08-12T00:17:11;19.08;;;10.98;;
36663;SDS011;53333;51.976;20.144;2023-08-12T00:19:44;22.80;;;12.05;;
36663;SDS011;53333;51.976;20.144;2023-08-12T00:22:17;21.58;;;10.65;;
36663;SDS011;53333;51.976;20.144;2023-08-12T00:24:50;20.77;;;11.23;;
36663;SDS011;53333;51.976;20.144;2023-08-12T00:27:23;19.23;;;12.50;;
36663;SDS011;53333;51.976;20.144;2023-08-12T00:29:58;23.65;;;12.48;;
36663;SDS011;53333;51.976;20.144;2023-08-12T00:32:31;25.27;;;11.70;;
36663;SDS011;53333;51.976;20.144;2023-08-12T00:35:04;29.90;;;12.55;;
36663;SDS011;53333;51.976;20.144;2023-08-12T00:40:10;25.08;;;14.50;;
36663;SDS011;53333;51.976;20.144;2023-08-12T00:42:45;26.80;;;12.55;;
36663;SDS011;53333;51.976;20.144;2023-08-12T00:45:21;23.02;;;11.70;;
36663;SDS011;53333;51.976;20.144;2023-08-12T00:47:53;23.13;;;11.63;;
36663;SDS011;53333;51.976;20.144;2023-08-12T00:50:27;25.27;;;11.73;;
36663;SDS011;53333;51.976;20.144;2023-08-12T00:53:01;18.25;;;11.23;;
36663;SDS011;53333;51.976;20.144;2023-08-12T00:55:34;18.10;;;10.38;;
36663;SDS011;53333;51.976;20.144;2023-08-12T00:58:07;19.13;;;11.25;;
36663;SDS011;53333;51.976;20.144;2023-08-12T01:00:42;19.85;;;10.32;;
36663;SDS011;53333;51.976;20.144;2023-08-12T01:03:15;21.35;;;10.00;;
36663;SDS011;53333;51.976;20.144;2023-08-12T01:05:48;20.08;;;10.38;;
36663;SDS011;53333;51.976;20.144;2023-08-12T01:08:22;20.20;;;10.90;;
36663;SDS011;53333;51.976;20.144;2023-08-12T01:11:20;21.80;;;9.77;;
36663;SDS011;53333;51.976;20.144;2023-08-12T01:13:58;21.33;;;11.63;;
36663;SDS011;53333;51.976;20.144;2023-08-12T01:16:44;22.95;;;10.80;;
36663;SDS011;53333;51.976;20.144;2023-08-12T01:19:21;22.65;;;10.32;;
36663;SDS011;53333;51.976;20.144;2023-08-12T01:22:02;21.30;;;10.73;;
36663;SDS011;53333;51.976;20.144;2023-08-12T01:24:38;20.83;;;11.65;;
36663;SDS011;53333;51.976;20.144;2023-08-12T01:27:14;26.80;;;11.40;;
36663;SDS011;53333;51.976;20.144;2023-08-12T01:29:48;20.45;;;11.35;;
36663;SDS011;53333;51.976;20.144;2023-08-12T01:32:23;23.02;;;12.55;;
36663;SDS011;53333;51.976;20.144;2023-08-12T01:35:03;26.65;;;12.27;;
36663;SDS011;53333;51.976;20.144;2023-08-12T01:37:42;22.73;;;12.20;;
36663;SDS011;53333;51.976;20.144;2023-08-12T01:40:17;27.17;;;12.52;;
36663;SDS011;53333;51.976;20.144;2023-08-12T01:42:51;26.88;;;11.57;;
36663;SDS011;53333;51.976;20.144;2023-08-12T01:47:58;23.67;;;11.90;;
36663;SDS011;53333;51.976;20.144;2023-08-12T01:50:31;34.55;;;13.52;;
36663;SDS011;53333;51.976;20.144;2023-08-12T01:53:04;23.58;;;12.30;;
36663;SDS011;53333;51.976;20.144;2023-08-12T01:55:38;22.90;;;11.63;;
36663;SDS011;53333;51.976;20.144;2023-08-12T01:58:11;26.17;;;12.75;;
36663;SDS011;53333;51.976;20.144;2023-08-12T02:00:44;24.50;;;12.18;;
36663;SDS011;53333;51.976;20.144;2023-08-12T02:03:16;25.58;;;13.50;;
36663;SDS011;53333;51.976;20.144;2023-08-12T02:05:49;18.88;;;11.80;;
36663;SDS011;53333;51.976;20.144;2023-08-12T02:08:22;20.52;;;11.13;;
36663;SDS011;53333;51.976;20.144;2023-08-12T02:10:56;22.92;;;12.05;;
36663;SDS011;53333;51.976;20.144;2023-08-12T02:13:29;20.83;;;11.50;;
36663;SDS011;53333;51.976;20.144;2023-08-12T02:16:03;26.30;;;12.63;;
36663;SDS011;53333;51.976;20.144;2023-08-12T02:18:36;22.42;;;11.95;;
36663;SDS011;53333;51.976;20.144;2023-08-12T02:21:10;18.75;;;10.63;;
36663;SDS011;53333;51.976;20.144;2023-08-12T02:23:43;17.92;;;11.43;;
36663;SDS011;53333;51.976;20.144;2023-08-12T02:26:18;26.40;;;11.93;;
36663;SDS011;53333;51.976;20.144;2023-08-12T02:28:52;21.05;;;10.00;;
36663;SDS011;53333;51.976;20.144;2023-08-12T02:31:25;21.98;;;10.43;;
36663;SDS011;53333;51.976;20.144;2023-08-12T02:33:58;17.00;;;10.40;;
36663;SDS011;53333;51.976;20.144;2023-08-12T02:36:32;25.77;;;10.90;;
36663;SDS011;53333;51.976;20.144;2023-08-12T02:39:05;26.35;;;11.38;;
36663;SDS011;53333;51.976;20.144;2023-08-12T02:41:40;21.88;;;11.13;;
36663;SDS011;53333;51.976;20.144;2023-08-12T02:44:13;19.75;;;10.15;;
36663;SDS011;53333;51.976;20.144;2023-08-12T02:46:46;19.40;;;9.65;;
36663;SDS011;53333;51.976;20.144;2023-08-12T02:49:19;19.50;;;10.88;;
36663;SDS011;53333;51.976;20.144;2023-08-12T02:51:52;20.33;;;9.73;;
36663;SDS011;53333;51.976;20.144;2023-08-12T02:54:25;18.88;;;10.02;;
36663;SDS011;53333;51.976;20.144;2023-08-12T02:56:59;15.60;;;8.90;;
36663;SDS011;53333;51.976;20.144;2023-08-12T02:59:34;21.55;;;9.80;;
36663;SDS011;53333;51.976;20.144;2023-08-12T03:02:07;19.10;;;9.80;;
36663;SDS011;53333;51.976;20.144;2023-08-12T03:04:40;11.30;;;8.48;;
36663;SDS011;53333;51.976;20.144;2023-08-12T03:07:13;14.52;;;9.02;;
36663;SDS011;53333;51.976;20.144;2023-08-12T03:09:46;15.68;;;9.05;;
36663;SDS011;53333;51.976;20.144;2023-08-12T03:12:20;13.55;;;8.07;;
36663;SDS011;53333;51.976;20.144;2023-08-12T03:14:53;15.98;;;9.02;;
36663;SDS011;53333;51.976;20.144;2023-08-12T03:17:26;14.90;;;8.27;;
36663;SDS011;53333;51.976;20.144;2023-08-12T03:20:00;11.05;;;8.05;;
36663;SDS011;53333;51.976;20.144;2023-08-12T03:22:36;13.02;;;7.72;;
36663;SDS011;53333;51.976;20.144;2023-08-12T03:25:10;14.25;;;7.20;;
36663;SDS011;53333;51.976;20.144;2023-08-12T03:27:44;13.27;;;7.63;;
36663;SDS011;53333;51.976;20.144;2023-08-12T03:30:18;13.07;;;7.45;;
36663;SDS011;53333;51.976;20.144;2023-08-12T03:35:25;17.63;;;7.47;;
36663;SDS011;53333;51.976;20.144;2023-08-12T03:37:58;11.48;;;7.30;;
36663;SDS011;53333;51.976;20.144;2023-08-12T03:43:06;13.35;;;7.18;;
36663;SDS011;53333;51.976;20.144;2023-08-12T03:45:40;11.00;;;7.10;;
36663;SDS011;53333;51.976;20.144;2023-08-12T03:48:15;18.13;;;7.47;;
36663;SDS011;53333;51.976;20.144;2023-08-12T03:50:48;17.08;;;7.47;;
36663;SDS011;53333;51.976;20.144;2023-08-12T03:55:56;16.98;;;7.47;;
36663;SDS011;53333;51.976;20.144;2023-08-12T03:58:32;10.32;;;7.30;;
36663;SDS011;53333;51.976;20.144;2023-08-12T04:01:05;9.85;;;7.18;;
36663;SDS011;53333;51.976;20.144;2023-08-12T04:03:38;12.25;;;7.22;;
36663;SDS011;53333;51.976;20.144;2023-08-12T04:06:11;11.40;;;6.68;;
36663;SDS011;53333;51.976;20.144;2023-08-12T04:08:44;13.90;;;6.53;;
36663;SDS011;53333;51.976;20.144;2023-08-12T04:11:17;15.65;;;10.45;;
36663;SDS011;53333;51.976;20.144;2023-08-12T04:13:52;16.63;;;7.25;;
36663;SDS011;53333;51.976;20.144;2023-08-12T04:16:25;12.23;;;5.68;;
36663;SDS011;53333;51.976;20.144;2023-08-12T04:18:58;11.48;;;6.53;;
36663;SDS011;53333;51.976;20.144;2023-08-12T04:21:31;11.10;;;6.60;;
36663;SDS011;53333;51.976;20.144;2023-08-12T04:24:04;12.77;;;6.18;;
36663;SDS011;53333;51.976;20.144;2023-08-12T04:26:38;11.90;;;6.25;;
36663;SDS011;53333;51.976;20.144;2023-08-12T04:29:13;11.98;;;5.75;;
36663;SDS011;53333;51.976;20.144;2023-08-12T04:31:46;10.98;;;5.65;;
36663;SDS011;53333;51.976;20.144;2023-08-12T04:34:19;11.45;;;5.75;;
36663;SDS011;53333;51.976;20.144;2023-08-12T04:36:52;9.93;;;5.50;;
36663;SDS011;53333;51.976;20.144;2023-08-12T04:41:59;14.43;;;5.78;;
36663;SDS011;53333;51.976;20.144;2023-08-12T04:44:34;10.13;;;6.10;;
36663;SDS011;53333;51.976;20.144;2023-08-12T04:47:06;10.43;;;6.10;;
36663;SDS011;53333;51.976;20.144;2023-08-12T04:49:41;10.07;;;6.15;;
36663;SDS011;53333;51.976;20.144;2023-08-12T04:52:14;11.43;;;5.90;;
36663;SDS011;53333;51.976;20.144;2023-08-12T04:54:47;12.35;;;6.57;;
36663;SDS011;53333;51.976;20.144;2023-08-12T04:57:20;9.55;;;5.50;;
36663;SDS011;53333;51.976;20.144;2023-08-12T04:59:55;7.97;;;5.20;;
36663;SDS011;53333;51.976;20.144;2023-08-12T05:02:28;12.15;;;6.00;;
36663;SDS011;53333;51.976;20.144;2023-08-12T05:05:02;8.13;;;5.80;;
36663;SDS011;53333;51.976;20.144;2023-08-12T05:07:37;8.38;;;5.97;;
36663;SDS011;53333;51.976;20.144;2023-08-12T05:10:12;9.68;;;5.55;;
36663;SDS011;53333;51.976;20.144;2023-08-12T05:12:45;12.43;;;6.15;;
36663;SDS011;53333;51.976;20.144;2023-08-12T05:15:21;8.70;;;5.20;;
36663;SDS011;53333;51.976;20.144;2023-08-12T05:17:54;11.65;;;5.72;;
36663;SDS011;53333;51.976;20.144;2023-08-12T05:20:27;10.27;;;5.28;;
36663;SDS011;53333;51.976;20.144;2023-08-12T05:23:01;7.55;;;4.53;;
36663;SDS011;53333;51.976;20.144;2023-08-12T05:25:34;10.23;;;6.63;;
36663;SDS011;53333;51.976;20.144;2023-08-12T05:28:07;11.55;;;4.82;;
36663;SDS011;53333;51.976;20.144;2023-08-12T05:30:42;9.60;;;5.18;;
36663;SDS011;53333;51.976;20.144;2023-08-12T05:33:15;7.93;;;4.88;;
36663;SDS011;53333;51.976;20.144;2023-08-12T05:35:48;10.98;;;4.80;;
36663;SDS011;53333;51.976;20.144;2023-08-12T05:38:21;6.03;;;4.10;;
36663;SDS011;53333;51.976;20.144;2023-08-12T05:40:54;6.95;;;4.10;;
36663;SDS011;53333;51.976;20.144;2023-08-12T05:43:27;6.90;;;3.35;;
36663;SDS011;53333;51.976;20.144;2023-08-12T05:46:01;11.82;;;4.25;;
36663;SDS011;53333;51.976;20.144;2023-08-12T05:48:34;5.93;;;3.75;;
36663;SDS011;53333;51.976;20.144;2023-08-12T05:51:07;6.47;;;4.65;;
36663;SDS011;53333;51.976;20.144;2023-08-12T05:53:40;9.05;;;3.70;;
36663;SDS011;53333;51.976;20.144;2023-08-12T05:56:13;6.30;;;3.05;;
36663;SDS011;53333;51.976;20.144;2023-08-12T05:58:46;8.30;;;3.15;;
36663;SDS011;53333;51.976;20.144;2023-08-12T06:01:20;7.43;;;3.20;;
36663;SDS011;53333;51.976;20.144;2023-08-12T06:03:53;13.40;;;3.00;;
36663;SDS011;53333;51.976;20.144;2023-08-12T06:06:26;5.82;;;3.00;;
36663;SDS011;53333;51.976;20.144;2023-08-12T06:08:59;3.92;;;2.70;;
36663;SDS011;53333;51.976;20.144;2023-08-12T06:11:32;8.38;;;3.65;;
36663;SDS011;53333;51.976;20.144;2023-08-12T06:14:05;6.13;;;2.78;;
36663;SDS011;53333;51.976;20.144;2023-08-12T06:19:13;8.05;;;2.75;;
36663;SDS011;53333;51.976;20.144;2023-08-12T06:21:45;5.25;;;2.63;;
36663;SDS011;53333;51.976;20.144;2023-08-12T06:24:21;5.72;;;2.67;;
36663;SDS011;53333;51.976;20.144;2023-08-12T06:26:54;6.72;;;2.53;;
36663;SDS011;53333;51.976;20.144;2023-08-12T06:29:27;9.88;;;2.60;;
36663;SDS011;53333;51.976;20.144;2023-08-12T06:32:01;3.85;;;2.20;;
36663;SDS011;53333;51.976;20.144;2023-08-12T06:34:34;4.82;;;2.15;;
36663;SDS011;53333;51.976;20.144;2023-08-12T06:37:07;6.45;;;2.17;;
36663;SDS011;53333;51.976;20.144;2023-08-12T06:39:40;4.32;;;2.78;;
36663;SDS011;53333;51.976;20.144;2023-08-12T06:42:13;5.10;;;2.38;;
36663;SDS011;53333;51.976;20.144;2023-08-12T06:44:49;6.82;;;2.80;;
36663;SDS011;53333;51.976;20.144;2023-08-12T06:47:28;4.55;;;2.08;;
36663;SDS011;53333;51.976;20.144;2023-08-12T06:50:01;5.57;;;2.35;;
36663;SDS011;53333;51.976;20.144;2023-08-12T06:52:34;6.45;;;2.25;;
36663;SDS011;53333;51.976;20.144;2023-08-12T06:55:08;8.77;;;2.63;;
36663;SDS011;53333;51.976;20.144;2023-08-12T06:57:41;6.72;;;3.20;;
36663;SDS011;53333;51.976;20.144;2023-08-12T07:00:14;4.15;;;1.83;;
36663;SDS011;53333;51.976;20.144;2023-08-12T07:02:48;5.72;;;2.22;;
36663;SDS011;53333;51.976;20.144;2023-08-12T07:05:21;7.72;;;1.90;;
36663;SDS011;53333;51.976;20.144;2023-08-12T07:07:54;6.70;;;2.28;;
36663;SDS011;53333;51.976;20.144;2023-08-12T07:10:27;7.63;;;2.40;;
36663;SDS011;53333;51.976;20.144;2023-08-12T07:13:00;7.38;;;2.60;;
36663;SDS011;53333;51.976;20.144;2023-08-12T07:15:33;5.97;;;2.50;;
36663;SDS011;53333;51.976;20.144;2023-08-12T07:18:07;5.80;;;2.22;;
36663;SDS011;53333;51.976;20.144;2023-08-12T07:20:40;5.25;;;2.53;;
36663;SDS011;53333;51.976;20.144;2023-08-12T07:23:13;5.28;;;2.30;;
36663;SDS011;53333;51.976;20.144;2023-08-12T07:25:46;5.53;;;2.08;;
36663;SDS011;53333;51.976;20.144;2023-08-12T07:28:19;6.63;;;2.70;;
36663;SDS011;53333;51.976;20.144;2023-08-12T07:30:52;3.75;;;2.30;;
36663;SDS011;53333;51.976;20.144;2023-08-12T07:33:27;4.05;;;1.85;;
36663;SDS011;53333;51.976;20.144;2023-08-12T07:36:00;6.97;;;1.90;;
36663;SDS011;53333;51.976;20.144;2023-08-12T07:38:33;3.85;;;1.60;;
36663;SDS011;53333;51.976;20.144;2023-08-12T07:41:07;7.20;;;1.70;;
36663;SDS011;53333;51.976;20.144;2023-08-12T07:43:40;6.20;;;1.92;;
36663;SDS011;53333;51.976;20.144;2023-08-12T07:46:13;5.30;;;2.05;;
36663;SDS011;53333;51.976;20.144;2023-08-12T07:51:20;6.47;;;1.90;;
36663;SDS011;53333;51.976;20.144;2023-08-12T07:53:53;5.53;;;2.22;;
36663;SDS011;53333;51.976;20.144;2023-08-12T07:58:59;2.93;;;1.67;;
36663;SDS011;53333;51.976;20.144;2023-08-12T08:01:32;6.70;;;2.00;;
36663;SDS011;53333;51.976;20.144;2023-08-12T08:04:10;2.28;;;1.38;;
36663;SDS011;53333;51.976;20.144;2023-08-12T08:06:43;4.55;;;1.58;;
36663;SDS011;53333;51.976;20.144;2023-08-12T08:09:16;2.75;;;1.90;;
36663;SDS011;53333;51.976;20.144;2023-08-12T08:14:23;3.40;;;1.70;;
36663;SDS011;53333;51.976;20.144;2023-08-12T08:16:56;6.93;;;1.77;;
36663;SDS011;53333;51.976;20.144;2023-08-12T08:19:31;4.18;;;1.58;;
36663;SDS011;53333;51.976;20.144;2023-08-12T08:22:04;3.13;;;1.83;;
36663;SDS011;53333;51.976;20.144;2023-08-12T08:27:10;3.90;;;1.63;;
36663;SDS011;53333;51.976;20.144;2023-08-12T08:29:44;3.03;;;1.60;;
36663;SDS011;53333;51.976;20.144;2023-08-12T08:34:51;3.10;;;1.60;;
36663;SDS011;53333;51.976;20.144;2023-08-12T08:37:24;3.78;;;1.65;;
36663;SDS011;53333;51.976;20.144;2023-08-12T08:39:57;5.20;;;1.67;;
36663;SDS011;53333;51.976;20.144;2023-08-12T08:45:03;2.40;;;1.70;;
36663;SDS011;53333;51.976;20.144;2023-08-12T08:47:42;3.22;;;1.67;;
36663;SDS011;53333;51.976;20.144;2023-08-12T08:50:17;5.50;;;1.50;;
36663;SDS011;53333;51.976;20.144;2023-08-12T08:52:50;11.18;;;6.78;;
36663;SDS011;53333;51.976;20.144;2023-08-12T08:55:25;3.10;;;1.60;;
36663;SDS011;53333;51.976;20.144;2023-08-12T08:57:58;2.67;;;1.55;;
36663;SDS011;53333;51.976;20.144;2023-08-12T09:00:36;5.15;;;1.63;;
36663;SDS011;53333;51.976;20.144;2023-08-12T09:03:10;3.60;;;1.50;;
36663;SDS011;53333;51.976;20.144;2023-08-12T09:05:48;3.45;;;1.52;;
36663;SDS011;53333;51.976;20.144;2023-08-12T09:08:23;4.22;;;1.48;;
36663;SDS011;53333;51.976;20.144;2023-08-12T09:10:57;5.25;;;1.77;;
36663;SDS011;53333;51.976;20.144;2023-08-12T09:13:32;4.00;;;1.30;;
36663;SDS011;53333;51.976;20.144;2023-08-12T09:16:04;4.07;;;1.98;;
36663;SDS011;53333;51.976;20.144;2023-08-12T09:18:37;2.50;;;1.52;;
36663;SDS011;53333;51.976;20.144;2023-08-12T09:21:12;2.83;;;1.50;;
36663;SDS011;53333;51.976;20.144;2023-08-12T09:23:45;3.53;;;1.95;;
36663;SDS011;53333;51.976;20.144;2023-08-12T09:26:19;2.95;;;1.83;;
36663;SDS011;53333;51.976;20.144;2023-08-12T09:28:53;6.13;;;1.92;;
36663;SDS011;53333;51.976;20.144;2023-08-12T09:31:26;2.72;;;1.60;;
36663;SDS011;53333;51.976;20.144;2023-08-12T09:34:03;5.10;;;2.20;;
36663;SDS011;53333;51.976;20.144;2023-08-12T09:36:39;5.15;;;2.03;;
36663;SDS011;53333;51.976;20.144;2023-08-12T09:39:12;5.90;;;1.88;;
36663;SDS011;53333;51.976;20.144;2023-08-12T09:41:46;4.07;;;2.00;;
36663;SDS011;53333;51.976;20.144;2023-08-12T09:44:18;3.42;;;1.55;;
36663;SDS011;53333;51.976;20.144;2023-08-12T09:46:55;4.40;;;1.92;;
36663;SDS011;53333;51.976;20.144;2023-08-12T09:49:29;2.75;;;1.50;;
36663;SDS011;53333;51.976;20.144;2023-08-12T09:52:04;4.28;;;2.13;;
36663;SDS011;53333;51.976;20.144;2023-08-12T09:54:38;2.95;;;1.80;;
36663;SDS011;53333;51.976;20.144;2023-08-12T09:57:11;6.57;;;1.90;;
36663;SDS011;53333;51.976;20.144;2023-08-12T09:59:45;3.15;;;1.90;;
36663;SDS011;53333;51.976;20.144;2023-08-12T10:02:20;4.90;;;1.95;;
36663;SDS011;53333;51.976;20.144;2023-08-12T10:04:53;3.00;;;1.85;;
36663;SDS011;53333;51.976;20.144;2023-08-12T10:07:30;3.70;;;3.10;;
36663;SDS011;53333;51.976;20.144;2023-08-12T10:10:04;3.22;;;1.92;;
36663;SDS011;53333;51.976;20.144;2023-08-12T10:12:38;3.67;;;1.80;;
36663;SDS011;53333;51.976;20.144;2023-08-12T10:15:11;3.75;;;1.98;;
36663;SDS011;53333;51.976;20.144;2023-08-12T10:17:44;3.22;;;2.00;;
36663;SDS011;53333;51.976;20.144;2023-08-12T10:20:20;3.33;;;1.50;;
36663;SDS011;53333;51.976;20.144;2023-08-12T10:22:55;5.40;;;1.88;;
36663;SDS011;53333;51.976;20.144;2023-08-12T10:25:30;4.43;;;1.73;;
36663;SDS011;53333;51.976;20.144;2023-08-12T10:28:06;2.22;;;1.40;;
36663;SDS011;53333;51.976;20.144;2023-08-12T10:30:39;3.70;;;1.17;;
36663;SDS011;53333;51.976;20.144;2023-08-12T10:33:13;2.28;;;1.63;;
36663;SDS011;53333;51.976;20.144;2023-08-12T10:35:48;5.10;;;1.98;;
36663;SDS011;53333;51.976;20.144;2023-08-12T10:38:23;4.32;;;1.42;;
36663;SDS011;53333;51.976;20.144;2023-08-12T10:41:14;3.38;;;1.42;;
36663;SDS011;53333;51.976;20.144;2023-08-12T10:43:48;3.47;;;1.52;;
36663;SDS011;53333;51.976;20.144;2023-08-12T10:46:23;4.10;;;1.88;;
36663;SDS011;53333;51.976;20.144;2023-08-12T10:49:02;2.28;;;1.38;;
36663;SDS011;53333;51.976;20.144;2023-08-12T10:51:40;3.80;;;1.17;;
36663;SDS011;53333;51.976;20.144;2023-08-12T10:54:18;2.83;;;1.40;;
36663;SDS011;53333;51.976;20.144;2023-08-12T10:57:09;2.70;;;1.42;;
36663;SDS011;53333;51.976;20.144;2023-08-12T11:02:26;2.20;;;1.40;;
36663;SDS011;53333;51.976;20.144;2023-08-12T11:05:01;2.45;;;1.50;;
36663;SDS011;53333;51.976;20.144;2023-08-12T11:07:37;2.67;;;1.58;;
36663;SDS011;53333;51.976;20.144;2023-08-12T11:10:13;3.20;;;1.42;;
36663;SDS011;53333;51.976;20.144;2023-08-12T11:12:49;1.98;;;1.25;;
36663;SDS011;53333;51.976;20.144;2023-08-12T11:15:30;3.20;;;1.33;;
36663;SDS011;53333;51.976;20.144;2023-08-12T11:18:05;2.63;;;1.60;;
36663;SDS011;53333;51.976;20.144;2023-08-12T11:20:39;3.90;;;1.40;;
36663;SDS011;53333;51.976;20.144;2023-08-12T11:23:13;2.85;;;1.60;;
36663;SDS011;53333;51.976;20.144;2023-08-12T11:25:47;4.03;;;1.60;;
36663;SDS011;53333;51.976;20.144;2023-08-12T11:28:21;2.55;;;1.10;;
36663;SDS011;53333;51.976;20.144;2023-08-12T11:30:57;3.92;;;1.40;;
36663;SDS011;53333;51.976;20.144;2023-08-12T11:33:30;2.85;;;1.20;;
36663;SDS011;53333;51.976;20.144;2023-08-12T11:36:04;4.85;;;1.65;;
36663;SDS011;53333;51.976;20.144;2023-08-12T11:38:37;2.03;;;1.33;;
36663;SDS011;53333;51.976;20.144;2023-08-12T11:41:12;2.47;;;1.30;;
36663;SDS011;53333;51.976;20.144;2023-08-12T11:43:45;2.30;;;1.25;;
36663;SDS011;53333;51.976;20.144;2023-08-12T11:46:17;2.90;;;1.27;;
36663;SDS011;53333;51.976;20.144;2023-08-12T11:48:51;3.10;;;1.33;;
36663;SDS011;53333;51.976;20.144;2023-08-12T11:51:24;4.57;;;1.70;;
36663;SDS011;53333;51.976;20.144;2023-08-12T11:53:57;2.13;;;1.60;;
36663;SDS011;53333;51.976;20.144;2023-08-12T11:56:31;3.45;;;1.23;;
36663;SDS011;53333;51.976;20.144;2023-08-12T11:59:05;3.22;;;1.63;;
36663;SDS011;53333;51.976;20.144;2023-08-12T12:01:37;3.10;;;1.58;;
36663;SDS011;53333;51.976;20.144;2023-08-12T12:04:11;3.28;;;1.63;;
36663;SDS011;53333;51.976;20.144;2023-08-12T12:06:44;2.15;;;1.08;;
36663;SDS011;53333;51.976;20.144;2023-08-12T12:09:17;2.92;;;1.30;;
36663;SDS011;53333;51.976;20.144;2023-08-12T12:11:53;3.45;;;1.50;;
36663;SDS011;53333;51.976;20.144;2023-08-12T12:14:26;3.13;;;2.25;;
36663;SDS011;53333;51.976;20.144;2023-08-12T12:19:31;1.90;;;1.50;;
36663;SDS011;53333;51.976;20.144;2023-08-12T12:22:04;2.10;;;1.40;;
36663;SDS011;53333;51.976;20.144;2023-08-12T12:24:44;2.38;;;1.30;;
36663;SDS011;53333;51.976;20.144;2023-08-12T12:27:18;2.13;;;1.17;;
36663;SDS011;53333;51.976;20.144;2023-08-12T12:29:51;4.40;;;1.40;;
36663;SDS011;53333;51.976;20.144;2023-08-12T12:32:25;4.18;;;1.60;;
36663;SDS011;53333;51.976;20.144;2023-08-12T12:34:58;5.78;;;2.58;;
36663;SDS011;53333;51.976;20.144;2023-08-12T12:37:34;2.75;;;1.60;;
36663;SDS011;53333;51.976;20.144;2023-08-12T12:40:08;2.92;;;1.42;;
36663;SDS011;53333;51.976;20.144;2023-08-12T12:42:44;3.83;;;1.70;;
36663;SDS011;53333;51.976;20.144;2023-08-12T12:45:17;2.55;;;1.30;;
36663;SDS011;53333;51.976;20.144;2023-08-12T12:47:50;2.67;;;1.50;;
36663;SDS011;53333;51.976;20.144;2023-08-12T12:50:23;2.75;;;1.40;;
36663;SDS011;53333;51.976;20.144;2023-08-12T12:52:56;2.17;;;1.30;;
36663;SDS011;53333;51.976;20.144;2023-08-12T12:55:29;2.78;;;1.40;;
36663;SDS011;53333;51.976;20.144;2023-08-12T13:00:36;5.10;;;1.80;;
36663;SDS011;53333;51.976;20.144;2023-08-12T13:05:42;4.07;;;1.42;;
36663;SDS011;53333;51.976;20.144;2023-08-12T13:08:15;2.40;;;1.77;;
36663;SDS011;53333;51.976;20.144;2023-08-12T13:15:56;3.33;;;1.50;;
36663;SDS011;53333;51.976;20.144;2023-08-12T13:21:01;2.90;;;1.45;;
36663;SDS011;53333;51.976;20.144;2023-08-12T13:23:35;2.63;;;1.70;;
36663;SDS011;53333;51.976;20.144;2023-08-12T13:26:08;3.60;;;1.35;;
36663;SDS011;53333;51.976;20.144;2023-08-12T13:28:42;5.38;;;2.05;;
36663;SDS011;53333;51.976;20.144;2023-08-12T13:31:15;2.67;;;1.33;;
36663;SDS011;53333;51.976;20.144;2023-08-12T13:33:49;3.33;;;1.58;;
36663;SDS011;53333;51.976;20.144;2023-08-12T13:36:22;3.05;;;1.90;;
36663;SDS011;53333;51.976;20.144;2023-08-12T13:38:56;3.15;;;1.70;;
36663;SDS011;53333;51.976;20.144;2023-08-12T13:41:31;2.10;;;1.30;;
36663;SDS011;53333;51.976;20.144;2023-08-12T13:44:06;2.67;;;1.30;;
36663;SDS011;53333;51.976;20.144;2023-08-12T13:46:39;2.72;;;1.30;;
36663;SDS011;53333;51.976;20.144;2023-08-12T13:49:12;3.33;;;1.83;;
36663;SDS011;53333;51.976;20.144;2023-08-12T13:51:45;3.55;;;1.40;;
36663;SDS011;53333;51.976;20.144;2023-08-12T13:54:18;3.70;;;1.95;;
36663;SDS011;53333;51.976;20.144;2023-08-12T13:59:25;4.20;;;1.50;;
36663;SDS011;53333;51.976;20.144;2023-08-12T14:01:58;12.82;;;1.95;;
36663;SDS011;53333;51.976;20.144;2023-08-12T14:07:03;6.15;;;1.75;;
36663;SDS011;53333;51.976;20.144;2023-08-12T14:09:36;4.93;;;1.58;;
36663;SDS011;53333;51.976;20.144;2023-08-12T14:12:09;2.92;;;1.27;;
36663;SDS011;53333;51.976;20.144;2023-08-12T14:14:44;4.10;;;1.45;;
36663;SDS011;53333;51.976;20.144;2023-08-12T14:17:17;2.38;;;1.75;;
36663;SDS011;53333;51.976;20.144;2023-08-12T14:19:54;3.67;;;1.67;;
36663;SDS011;53333;51.976;20.144;2023-08-12T14:22:27;2.38;;;1.60;;
36663;SDS011;53333;51.976;20.144;2023-08-12T14:25:00;4.35;;;1.90;;
36663;SDS011;53333;51.976;20.144;2023-08-12T14:27:36;5.93;;;1.55;;
36663;SDS011;53333;51.976;20.144;2023-08-12T14:30:11;6.47;;;1.77;;
36663;SDS011;53333;51.976;20.144;2023-08-12T14:32:45;3.72;;;1.50;;
36663;SDS011;53333;51.976;20.144;2023-08-12T14:35:21;3.85;;;1.60;;
36663;SDS011;53333;51.976;20.144;2023-08-12T14:37:54;4.53;;;2.00;;
36663;SDS011;53333;51.976;20.144;2023-08-12T14:40:27;5.75;;;1.73;;
36663;SDS011;53333;51.976;20.144;2023-08-12T14:43:00;5.05;;;1.60;;
36663;SDS011;53333;51.976;20.144;2023-08-12T14:45:34;4.65;;;1.67;;
36663;SDS011;53333;51.976;20.144;2023-08-12T14:48:07;6.38;;;1.88;;
36663;SDS011;53333;51.976;20.144;2023-08-12T14:50:40;4.35;;;2.08;;
36663;SDS011;53333;51.976;20.144;2023-08-12T14:53:14;4.30;;;1.80;;
36663;SDS011;53333;51.976;20.144;2023-08-12T14:55:47;2.58;;;1.25;;
36663;SDS011;53333;51.976;20.144;2023-08-12T14:58:20;5.00;;;1.83;;
36663;SDS011;53333;51.976;20.144;2023-08-12T15:03:28;2.78;;;1.67;;
36663;SDS011;53333;51.976;20.144;2023-08-12T15:06:02;5.07;;;2.03;;
36663;SDS011;53333;51.976;20.144;2023-08-12T15:08:36;4.70;;;2.13;;
36663;SDS011;53333;51.976;20.144;2023-08-12T15:13:41;7.53;;;2.42;;
36663;SDS011;53333;51.976;20.144;2023-08-12T15:16:16;9.65;;;2.25;;
36663;SDS011;53333;51.976;20.144;2023-08-12T15:18:49;5.28;;;1.95;;
36663;SDS011;53333;51.976;20.144;2023-08-12T15:21:22;3.33;;;1.90;;
36663;SDS011;53333;51.976;20.144;2023-08-12T15:26:28;7.22;;;1.85;;
36663;SDS011;53333;51.976;20.144;2023-08-12T15:29:03;3.00;;;1.70;;
36663;SDS011;53333;51.976;20.144;2023-08-12T15:31:37;6.18;;;2.25;;
36663;SDS011;53333;51.976;20.144;2023-08-12T15:34:10;5.03;;;1.85;;
36663;SDS011;53333;51.976;20.144;2023-08-12T15:39:16;3.47;;;1.65;;
36663;SDS011;53333;51.976;20.144;2023-08-12T15:41:49;5.05;;;1.52;;
36663;SDS011;53333;51.976;20.144;2023-08-12T15:46:56;4.95;;;1.95;;
36663;SDS011;53333;51.976;20.144;2023-08-12T15:49:30;4.28;;;1.77;;
36663;SDS011;53333;51.976;20.144;2023-08-12T15:52:04;3.08;;;1.63;;
36663;SDS011;53333;51.976;20.144;2023-08-12T15:57:10;2.58;;;1.85;;
36663;SDS011;53333;51.976;20.144;2023-08-12T15:59:43;3.88;;;1.40;;
36663;SDS011;53333;51.976;20.144;2023-08-12T16:02:18;3.55;;;1.38;;
36663;SDS011;53333;51.976;20.144;2023-08-12T16:04:51;5.97;;;1.98;;
36663;SDS011;53333;51.976;20.144;2023-08-12T16:09:57;3.05;;;2.05;;
36663;SDS011;53333;51.976;20.144;2023-08-12T16:12:30;3.78;;;2.47;;
36663;SDS011;53333;51.976;20.144;2023-08-12T16:17:37;4.43;;;1.98;;
36663;SDS011;53333;51.976;20.144;2023-08-12T16:20:12;2.60;;;1.42;;
36663;SDS011;53333;51.976;20.144;2023-08-12T16:25:18;6.72;;;1.98;;
36663;SDS011;53333;51.976;20.144;2023-08-12T16:30:24;5.72;;;2.80;;